sensor_id;sensor_type;location;lat;lon;timestamp;pressure;altitude;pressure_sealevel;temperature;humidity
40650;BME280;26342;42.826;23.992;2023-11-19T00:01:31;95227.50;;;3.27;100.00
40650;BME280;26342;42.826;23.992;2023-11-19T00:03:58;95229.09;;;3.28;100.00
40650;BME280;26342;42.826;23.992;2023-11-19T00:06:23;95228.63;;;3.38;100.00
40650;BME280;26342;42.826;23.992;2023-11-19T00:08:49;95226.91;;;3.25;100.00
40650;BME280;26342;42.826;23.992;2023-11-19T00:11:15;95233.25;;;3.18;100.00
40650;BME280;26342;42.826;23.992;2023-11-19T00:13:41;95240.09;;;3.25;100.00
40650;BME280;26342;42.826;23.992;2023-11-19T00:16:07;95204.78;;;3.26;100.00
40650;BME280;26342;42.826;23.992;2023-11-19T00:18:33;95227.72;;;3.26;100.00
40650;BME280;26342;42.826;23.992;2023-11-19T00:20:58;95227.72;;;3.26;100.00
40650;BME280;26342;42.826;23.992;2023-11-19T00:23:24;95218.81;;;3.20;100.00
40650;BME280;26342;42.826;23.992;2023-11-19T00:25:49;95217.91;;;3.33;100.00
40650;BME280;26342;42.826;23.992;2023-11-19T00:28:14;95234.56;;;3.33;100.00
40650;BME280;26342;42.826;23.992;2023-11-19T00:30:40;95232.31;;;3.30;100.00
40650;BME280;26342;42.826;23.992;2023-11-19T00:33:08;95232.50;;;3.35;100.00
40650;BME280;26342;42.826;23.992;2023-11-19T00:35:33;95229.41;;;3.39;100.00
40650;BME280;26342;42.826;23.992;2023-11-19T00:37:59;95226.41;;;3.35;100.00
40650;BME280;26342;42.826;23.992;2023-11-19T00:40:25;95229.59;;;3.44;100.00
40650;BME280;26342;42.826;23.992;2023-11-19T00:42:51;95212.19;;;3.36;100.00
40650;BME280;26342;42.826;23.992;2023-11-19T00:45:16;95219.47;;;3.41;100.00
40650;BME280;26342;42.826;23.992;2023-11-19T00:47:41;95229.81;;;3.42;100.00
40650;BME280;26342;42.826;23.992;2023-11-19T00:50:07;95227.19;;;3.42;100.00
40650;BME280;26342;42.826;23.992;2023-11-19T00:52:36;95226.72;;;3.45;100.00
40650;BME280;26342;42.826;23.992;2023-11-19T00:55:03;95223.47;;;3.50;100.00
40650;BME280;26342;42.826;23.992;2023-11-19T00:57:29;95216.75;;;3.47;100.00
40650;BME280;26342;42.826;23.992;2023-11-19T00:59:55;95222.88;;;3.48;100.00
40650;BME280;26342;42.826;23.992;2023-11-19T01:02:20;95221.47;;;3.45;100.00
40650;BME280;26342;42.826;23.992;2023-11-19T01:04:46;95232.31;;;3.55;100.00
40650;BME280;26342;42.826;23.992;2023-11-19T01:07:11;95209.78;;;3.59;100.00
40650;BME280;26342;42.826;23.992;2023-11-19T01:09:38;95228.47;;;3.58;100.00
40650;BME280;26342;42.826;23.992;2023-11-19T01:12:04;95219.88;;;3.62;100.00
40650;BME280;26342;42.826;23.992;2023-11-19T01:14:29;95225.81;;;3.58;100.00
40650;BME280;26342;42.826;23.992;2023-11-19T01:16:55;95223.94;;;3.65;100.00
40650;BME280;26342;42.826;23.992;2023-11-19T01:19:21;95220.59;;;3.51;100.00
40650;BME280;26342;42.826;23.992;2023-11-19T01:21:47;95229.09;;;3.53;100.00
40650;BME280;26342;42.826;23.992;2023-11-19T01:24:12;95227.72;;;3.51;100.00
40650;BME280;26342;42.826;23.992;2023-11-19T01:26:39;95224.22;;;3.57;100.00
40650;BME280;26342;42.826;23.992;2023-11-19T01:29:13;95224.69;;;3.47;100.00
40650;BME280;26342;42.826;23.992;2023-11-19T01:31:42;95226.03;;;3.56;100.00
40650;BME280;26342;42.826;23.992;2023-11-19T01:34:07;95221.41;;;3.52;100.00
40650;BME280;26342;42.826;23.992;2023-11-19T01:36:33;95219.13;;;3.55;100.00
40650;BME280;26342;42.826;23.992;2023-11-19T01:38:58;95219.06;;;3.62;100.00
40650;BME280;26342;42.826;23.992;2023-11-19T01:41:24;95218.50;;;3.78;100.00
40650;BME280;26342;42.826;23.992;2023-11-19T01:43:50;95211.03;;;3.75;100.00
40650;BME280;26342;42.826;23.992;2023-11-19T01:46:15;95197.09;;;3.68;100.00
40650;BME280;26342;42.826;23.992;2023-11-19T01:48:43;95207.53;;;3.81;100.00
40650;BME280;26342;42.826;23.992;2023-11-19T01:51:10;95214.78;;;3.68;100.00
40650;BME280;26342;42.826;23.992;2023-11-19T01:53:37;95219.81;;;3.69;100.00
40650;BME280;26342;42.826;23.992;2023-11-19T01:56:06;95210.34;;;3.61;100.00
40650;BME280;26342;42.826;23.992;2023-11-19T01:58:37;95231.03;;;3.64;100.00
40650;BME280;26342;42.826;23.992;2023-11-19T02:01:05;95214.88;;;3.54;100.00
40650;BME280;26342;42.826;23.992;2023-11-19T02:03:31;95227.59;;;3.64;100.00
40650;BME280;26342;42.826;23.992;2023-11-19T02:05:58;95231.69;;;3.60;100.00
40650;BME280;26342;42.826;23.992;2023-11-19T02:08:24;95245.19;;;3.70;100.00
40650;BME280;26342;42.826;23.992;2023-11-19T02:10:49;95233.59;;;3.71;100.00
40650;BME280;26342;42.826;23.992;2023-11-19T02:13:14;95249.38;;;3.78;100.00
40650;BME280;26342;42.826;23.992;2023-11-19T02:15:41;95248.03;;;3.69;100.00
40650;BME280;26342;42.826;23.992;2023-11-19T02:18:30;95246.16;;;3.76;100.00
40650;BME280;26342;42.826;23.992;2023-11-19T02:20:57;95233.53;;;3.78;100.00
40650;BME280;26342;42.826;23.992;2023-11-19T02:23:22;95240.59;;;3.84;100.00
40650;BME280;26342;42.826;23.992;2023-11-19T02:26:18;95229.59;;;3.87;100.00
40650;BME280;26342;42.826;23.992;2023-11-19T02:28:48;95232.84;;;3.89;100.00
40650;BME280;26342;42.826;23.992;2023-11-19T02:31:13;95227.19;;;3.85;100.00
40650;BME280;26342;42.826;23.992;2023-11-19T02:33:40;95218.16;;;3.93;100.00
40650;BME280;26342;42.826;23.992;2023-11-19T02:36:06;95229.53;;;3.93;100.00
40650;BME280;26342;42.826;23.992;2023-11-19T02:38:36;95232.84;;;3.89;100.00
40650;BME280;26342;42.826;23.992;2023-11-19T02:41:04;95226.75;;;3.88;100.00
40650;BME280;26342;42.826;23.992;2023-11-19T02:43:33;95226.47;;;3.97;100.00
40650;BME280;26342;42.826;23.992;2023-11-19T02:46:03;95234.81;;;3.93;100.00
40650;BME280;26342;42.826;23.992;2023-11-19T02:48:32;95232.78;;;3.96;100.00
40650;BME280;26342;42.826;23.992;2023-11-19T02:50:57;95240.91;;;3.94;100.00
40650;BME280;26342;42.826;23.992;2023-11-19T02:53:23;95247.22;;;3.93;100.00
40650;BME280;26342;42.826;23.992;2023-11-19T02:55:50;95226.16;;;3.86;100.00
40650;BME280;26342;42.826;23.992;2023-11-19T02:58:16;95215.88;;;3.78;100.00
40650;BME280;26342;42.826;23.992;2023-11-19T03:00:49;95224.25;;;3.93;100.00
40650;BME280;26342;42.826;23.992;2023-11-19T03:03:25;95227.63;;;3.82;100.00
40650;BME280;26342;42.826;23.992;2023-11-19T03:05:56;95226.88;;;3.75;100.00
40650;BME280;26342;42.826;23.992;2023-11-19T03:08:22;95233.50;;;3.84;100.00
40650;BME280;26342;42.826;23.992;2023-11-19T03:10:47;95226.75;;;3.88;100.00
40650;BME280;26342;42.826;23.992;2023-11-19T03:13:13;95237.84;;;3.97;100.00
40650;BME280;26342;42.826;23.992;2023-11-19T03:15:39;95236.06;;;3.91;100.00
40650;BME280;26342;42.826;23.992;2023-11-19T03:18:05;95240.72;;;3.96;100.00
40650;BME280;26342;42.826;23.992;2023-11-19T03:20:31;95236.22;;;3.96;100.00
40650;BME280;26342;42.826;23.992;2023-11-19T03:22:57;95230.72;;;3.98;100.00
40650;BME280;26342;42.826;23.992;2023-11-19T03:25:27;95251.78;;;4.04;100.00
40650;BME280;26342;42.826;23.992;2023-11-19T03:27:58;95249.94;;;4.05;100.00
40650;BME280;26342;42.826;23.992;2023-11-19T03:30:24;95247.16;;;4.00;100.00
40650;BME280;26342;42.826;23.992;2023-11-19T03:32:50;95248.25;;;3.92;100.00
40650;BME280;26342;42.826;23.992;2023-11-19T03:35:15;95250.66;;;3.93;100.00
40650;BME280;26342;42.826;23.992;2023-11-19T03:37:40;95248.25;;;3.92;100.00
40650;BME280;26342;42.826;23.992;2023-11-19T03:40:06;95264.06;;;3.92;100.00
40650;BME280;26342;42.826;23.992;2023-11-19T03:42:31;95255.75;;;3.95;100.00
40650;BME280;26342;42.826;23.992;2023-11-19T03:44:57;95262.53;;;4.03;100.00
40650;BME280;26342;42.826;23.992;2023-11-19T03:47:23;95270.97;;;3.93;100.00
40650;BME280;26342;42.826;23.992;2023-11-19T03:49:49;95269.53;;;3.97;100.00
40650;BME280;26342;42.826;23.992;2023-11-19T03:52:14;95269.13;;;3.93;100.00
40650;BME280;26342;42.826;23.992;2023-11-19T03:54:39;95261.50;;;3.85;100.00
40650;BME280;26342;42.826;23.992;2023-11-19T03:57:05;95274.06;;;3.90;100.00
40650;BME280;26342;42.826;23.992;2023-11-19T03:59:30;95260.84;;;3.90;100.00
40650;BME280;26342;42.826;23.992;2023-11-19T04:01:56;95269.59;;;3.90;100.00
40650;BME280;26342;42.826;23.992;2023-11-19T04:04:22;95273.88;;;3.85;100.00
40650;BME280;26342;42.826;23.992;2023-11-19T04:06:48;95266.47;;;3.75;100.00
40650;BME280;26342;42.826;23.992;2023-11-19T04:09:13;95255.91;;;3.75;100.00
40650;BME280;26342;42.826;23.992;2023-11-19T04:11:38;95287.53;;;3.82;100.00
40650;BME280;26342;42.826;23.992;2023-11-19T04:14:05;95286.28;;;3.84;100.00
40650;BME280;26342;42.826;23.992;2023-11-19T04:16:30;95279.38;;;3.83;100.00
40650;BME280;26342;42.826;23.992;2023-11-19T04:18:56;95276.38;;;3.80;100.00
40650;BME280;26342;42.826;23.992;2023-11-19T04:21:21;95264.28;;;3.72;100.00
40650;BME280;26342;42.826;23.992;2023-11-19T04:23:48;95267.06;;;3.77;100.00
40650;BME280;26342;42.826;23.992;2023-11-19T04:26:14;95279.97;;;3.85;100.00
40650;BME280;26342;42.826;23.992;2023-11-19T04:28:39;95278.84;;;3.75;100.00
40650;BME280;26342;42.826;23.992;2023-11-19T04:31:05;95281.72;;;3.73;100.00
40650;BME280;26342;42.826;23.992;2023-11-19T04:33:31;95289.19;;;3.76;100.00
40650;BME280;26342;42.826;23.992;2023-11-19T04:35:56;95291.41;;;3.79;100.00
40650;BME280;26342;42.826;23.992;2023-11-19T04:38:21;95291.59;;;3.78;100.00
40650;BME280;26342;42.826;23.992;2023-11-19T04:40:47;95294.47;;;3.76;100.00
40650;BME280;26342;42.826;23.992;2023-11-19T04:43:12;95294.91;;;3.73;100.00
40650;BME280;26342;42.826;23.992;2023-11-19T04:45:38;95291.25;;;3.74;100.00
40650;BME280;26342;42.826;23.992;2023-11-19T04:48:05;95303.09;;;3.65;100.00
40650;BME280;26342;42.826;23.992;2023-11-19T04:50:30;95299.47;;;3.59;100.00
40650;BME280;26342;42.826;23.992;2023-11-19T04:52:55;95288.13;;;3.59;100.00
40650;BME280;26342;42.826;23.992;2023-11-19T04:55:21;95282.34;;;3.44;100.00
40650;BME280;26342;42.826;23.992;2023-11-19T04:57:46;95294.84;;;3.55;100.00
40650;BME280;26342;42.826;23.992;2023-11-19T05:00:13;95291.56;;;3.59;100.00
40650;BME280;26342;42.826;23.992;2023-11-19T05:02:38;95283.06;;;3.57;100.00
40650;BME280;26342;42.826;23.992;2023-11-19T05:05:04;95290.31;;;3.62;100.00
40650;BME280;26342;42.826;23.992;2023-11-19T05:07:30;95290.13;;;3.63;100.00
40650;BME280;26342;42.826;23.992;2023-11-19T05:09:56;95286.25;;;3.66;100.00
40650;BME280;26342;42.826;23.992;2023-11-19T05:12:21;95299.78;;;3.70;100.00
40650;BME280;26342;42.826;23.992;2023-11-19T05:14:48;95305.28;;;3.68;100.00
40650;BME280;26342;42.826;23.992;2023-11-19T05:17:17;95308.59;;;3.63;100.00
40650;BME280;26342;42.826;23.992;2023-11-19T05:19:43;95307.34;;;3.66;100.00
40650;BME280;26342;42.826;23.992;2023-11-19T05:22:09;95311.81;;;3.66;100.00
40650;BME280;26342;42.826;23.992;2023-11-19T05:24:34;95320.31;;;3.68;100.00
40650;BME280;26342;42.826;23.992;2023-11-19T05:27:01;95322.53;;;3.71;100.00
40650;BME280;26342;42.826;23.992;2023-11-19T05:29:27;95300.25;;;3.67;100.00
40650;BME280;26342;42.826;23.992;2023-11-19T05:31:52;95313.53;;;3.78;100.00
40650;BME280;26342;42.826;23.992;2023-11-19T05:34:19;95312.13;;;3.76;100.00
40650;BME280;26342;42.826;23.992;2023-11-19T05:36:45;95318.19;;;3.83;100.00
40650;BME280;26342;42.826;23.992;2023-11-19T05:39:10;95311.66;;;3.85;100.00
40650;BME280;26342;42.826;23.992;2023-11-19T05:41:36;95320.38;;;3.86;100.00
40650;BME280;26342;42.826;23.992;2023-11-19T05:44:02;95325.19;;;3.96;100.00
40650;BME280;26342;42.826;23.992;2023-11-19T05:46:27;95328.13;;;4.06;100.00
40650;BME280;26342;42.826;23.992;2023-11-19T05:48:52;95320.78;;;4.08;100.00
40650;BME280;26342;42.826;23.992;2023-11-19T05:51:18;95327.47;;;4.10;100.00
40650;BME280;26342;42.826;23.992;2023-11-19T05:53:44;95346.13;;;4.15;100.00
40650;BME280;26342;42.826;23.992;2023-11-19T05:56:11;95346.06;;;4.22;100.00
40650;BME280;26342;42.826;23.992;2023-11-19T05:58:37;95341.75;;;4.28;100.00
40650;BME280;26342;42.826;23.992;2023-11-19T06:01:02;95331.25;;;4.21;100.00
40650;BME280;26342;42.826;23.992;2023-11-19T06:03:29;95338.88;;;4.11;100.00
40650;BME280;26342;42.826;23.992;2023-11-19T06:05:55;95347.16;;;4.14;100.00
40650;BME280;26342;42.826;23.992;2023-11-19T06:08:20;95360.13;;;4.16;100.00
40650;BME280;26342;42.826;23.992;2023-11-19T06:10:46;95360.34;;;4.14;100.00
40650;BME280;26342;42.826;23.992;2023-11-19T06:13:13;95368.56;;;4.06;100.00
40650;BME280;26342;42.826;23.992;2023-11-19T06:15:41;95373.19;;;4.11;100.00
40650;BME280;26342;42.826;23.992;2023-11-19T06:18:06;95363.28;;;4.06;100.00
40650;BME280;26342;42.826;23.992;2023-11-19T06:20:32;95363.84;;;4.08;100.00
40650;BME280;26342;42.826;23.992;2023-11-19T06:22:58;95364.03;;;4.13;100.00
40650;BME280;26342;42.826;23.992;2023-11-19T06:25:24;95342.59;;;4.03;100.00
40650;BME280;26342;42.826;23.992;2023-11-19T06:27:50;95343.03;;;4.18;100.00
40650;BME280;26342;42.826;23.992;2023-11-19T06:30:15;95335.84;;;4.07;100.00
40650;BME280;26342;42.826;23.992;2023-11-19T06:32:41;95341.06;;;4.14;100.00
40650;BME280;26342;42.826;23.992;2023-11-19T06:35:07;95345.25;;;4.22;100.00
40650;BME280;26342;42.826;23.992;2023-11-19T06:37:33;95344.28;;;4.16;100.00
40650;BME280;26342;42.826;23.992;2023-11-19T06:39:58;95350.97;;;4.18;100.00
40650;BME280;26342;42.826;23.992;2023-11-19T06:42:24;95340.78;;;4.22;100.00
40650;BME280;26342;42.826;23.992;2023-11-19T06:44:49;95338.38;;;4.20;100.00
40650;BME280;26342;42.826;23.992;2023-11-19T06:47:15;95342.63;;;4.22;100.00
40650;BME280;26342;42.826;23.992;2023-11-19T06:49:44;95317.34;;;4.07;100.00
40650;BME280;26342;42.826;23.992;2023-11-19T06:52:09;95338.41;;;4.14;100.00
40650;BME280;26342;42.826;23.992;2023-11-19T06:54:35;95365.81;;;4.19;100.00
40650;BME280;26342;42.826;23.992;2023-11-19T06:57:00;95365.38;;;4.23;100.00
40650;BME280;26342;42.826;23.992;2023-11-19T06:59:26;95368.59;;;4.25;100.00
40650;BME280;26342;42.826;23.992;2023-11-19T07:01:52;95364.16;;;4.18;100.00
40650;BME280;26342;42.826;23.992;2023-11-19T07:04:17;95377.53;;;4.24;100.00
40650;BME280;26342;42.826;23.992;2023-11-19T07:06:42;95367.94;;;4.29;100.00
40650;BME280;26342;42.826;23.992;2023-11-19T07:09:08;95380.13;;;4.30;100.00
40650;BME280;26342;42.826;23.992;2023-11-19T07:11:40;95375.88;;;4.29;100.00
40650;BME280;26342;42.826;23.992;2023-11-19T07:14:09;95380.13;;;4.30;100.00
40650;BME280;26342;42.826;23.992;2023-11-19T07:16:35;95385.94;;;4.39;100.00
40650;BME280;26342;42.826;23.992;2023-11-19T07:19:05;95392.59;;;4.41;100.00
40650;BME280;26342;42.826;23.992;2023-11-19T07:21:31;95393.63;;;4.40;100.00
40650;BME280;26342;42.826;23.992;2023-11-19T07:23:56;95386.91;;;4.44;100.00
40650;BME280;26342;42.826;23.992;2023-11-19T07:26:23;95365.03;;;4.37;100.00
40650;BME280;26342;42.826;23.992;2023-11-19T07:28:49;95393.31;;;4.55;100.00
40650;BME280;26342;42.826;23.992;2023-11-19T07:31:15;95397.94;;;4.60;100.00
40650;BME280;26342;42.826;23.992;2023-11-19T07:33:41;95398.31;;;4.63;100.00
40650;BME280;26342;42.826;23.992;2023-11-19T07:36:10;95381.88;;;4.61;100.00
40650;BME280;26342;42.826;23.992;2023-11-19T07:38:35;95393.41;;;4.67;100.00
40650;BME280;26342;42.826;23.992;2023-11-19T07:41:01;95400.66;;;4.71;100.00
40650;BME280;26342;42.826;23.992;2023-11-19T07:43:26;95391.75;;;4.66;100.00
40650;BME280;26342;42.826;23.992;2023-11-19T07:45:52;95407.38;;;4.74;100.00
40650;BME280;26342;42.826;23.992;2023-11-19T07:48:17;95394.16;;;4.74;100.00
40650;BME280;26342;42.826;23.992;2023-11-19T07:50:48;95390.47;;;4.75;100.00
40650;BME280;26342;42.826;23.992;2023-11-19T07:53:16;95406.03;;;4.83;100.00
40650;BME280;26342;42.826;23.992;2023-11-19T07:55:41;95414.31;;;4.87;100.00
40650;BME280;26342;42.826;23.992;2023-11-19T07:58:07;95400.53;;;4.85;100.00
40650;BME280;26342;42.826;23.992;2023-11-19T08:00:32;95384.66;;;4.85;100.00
40650;BME280;26342;42.826;23.992;2023-11-19T08:02:57;95381.28;;;4.96;100.00
40650;BME280;26342;42.826;23.992;2023-11-19T08:05:23;95398.59;;;5.10;100.00
40650;BME280;26342;42.826;23.992;2023-11-19T08:07:50;95397.72;;;5.16;100.00
40650;BME280;26342;42.826;23.992;2023-11-19T08:10:18;95402.72;;;5.24;100.00
40650;BME280;26342;42.826;23.992;2023-11-19T08:12:44;95396.25;;;5.20;100.00
40650;BME280;26342;42.826;23.992;2023-11-19T08:15:09;95397.78;;;5.28;100.00
40650;BME280;26342;42.826;23.992;2023-11-19T08:17:36;95402.03;;;5.29;100.00
40650;BME280;26342;42.826;23.992;2023-11-19T08:20:02;95408.47;;;5.21;100.00
40650;BME280;26342;42.826;23.992;2023-11-19T08:22:28;95407.50;;;5.16;100.00
40650;BME280;26342;42.826;23.992;2023-11-19T08:24:53;95422.38;;;5.28;100.00
40650;BME280;26342;42.826;23.992;2023-11-19T08:27:18;95422.38;;;5.28;100.00
40650;BME280;26342;42.826;23.992;2023-11-19T08:29:44;95422.69;;;5.39;100.00
40650;BME280;26342;42.826;23.992;2023-11-19T08:32:09;95410.19;;;5.46;100.00
40650;BME280;26342;42.826;23.992;2023-11-19T08:34:36;95400.91;;;5.55;100.00
40650;BME280;26342;42.826;23.992;2023-11-19T08:37:01;95395.38;;;5.56;100.00
40650;BME280;26342;42.826;23.992;2023-11-19T08:39:27;95398.81;;;5.57;100.00
40650;BME280;26342;42.826;23.992;2023-11-19T08:41:52;95391.84;;;5.63;100.00
40650;BME280;26342;42.826;23.992;2023-11-19T08:44:17;95405.56;;;5.71;100.00
40650;BME280;26342;42.826;23.992;2023-11-19T08:46:51;95401.22;;;5.77;100.00
40650;BME280;26342;42.826;23.992;2023-11-19T08:49:17;95406.28;;;5.78;100.00
40650;BME280;26342;42.826;23.992;2023-11-19T08:51:43;95397.63;;;5.83;100.00
40650;BME280;26342;42.826;23.992;2023-11-19T08:54:09;95392.72;;;5.86;100.00
40650;BME280;26342;42.826;23.992;2023-11-19T08:56:35;95400.59;;;5.93;100.00
40650;BME280;26342;42.826;23.992;2023-11-19T08:59:01;95407.03;;;5.97;100.00
40650;BME280;26342;42.826;23.992;2023-11-19T09:01:27;95404.63;;;6.07;100.00
40650;BME280;26342;42.826;23.992;2023-11-19T09:03:53;95406.03;;;6.10;100.00
40650;BME280;26342;42.826;23.992;2023-11-19T09:06:18;95394.06;;;6.31;100.00
40650;BME280;26342;42.826;23.992;2023-11-19T09:08:44;95398.84;;;6.64;100.00
40650;BME280;26342;42.826;23.992;2023-11-19T09:11:10;95391.34;;;6.72;100.00
40650;BME280;26342;42.826;23.992;2023-11-19T09:13:36;95364.22;;;6.70;100.00
40650;BME280;26342;42.826;23.992;2023-11-19T09:16:01;95374.72;;;6.77;93.06
40650;BME280;26342;42.826;23.992;2023-11-19T09:18:30;95368.63;;;6.65;97.02
40650;BME280;26342;42.826;23.992;2023-11-19T09:20:57;95368.50;;;6.60;94.80
40650;BME280;26342;42.826;23.992;2023-11-19T09:23:23;95362.97;;;6.61;92.90
40650;BME280;26342;42.826;23.992;2023-11-19T09:25:50;95366.75;;;6.77;97.42
40650;BME280;26342;42.826;23.992;2023-11-19T09:28:16;95366.16;;;6.98;91.81
40650;BME280;26342;42.826;23.992;2023-11-19T09:30:41;95374.38;;;7.25;94.65
40650;BME280;26342;42.826;23.992;2023-11-19T09:33:06;95375.19;;;7.26;92.58
40650;BME280;26342;42.826;23.992;2023-11-19T09:35:32;95379.59;;;7.20;86.16
40650;BME280;26342;42.826;23.992;2023-11-19T09:37:57;95383.88;;;7.21;90.69
40650;BME280;26342;42.826;23.992;2023-11-19T09:40:23;95367.81;;;7.28;91.94
40650;BME280;26342;42.826;23.992;2023-11-19T09:42:48;95358.59;;;7.76;97.45
40650;BME280;26342;42.826;23.992;2023-11-19T09:45:16;95354.81;;;7.89;87.12
40650;BME280;26342;42.826;23.992;2023-11-19T09:47:44;95347.34;;;7.86;87.05
40650;BME280;26342;42.826;23.992;2023-11-19T09:50:21;95340.13;;;8.15;83.18
40650;BME280;26342;42.826;23.992;2023-11-19T09:52:47;95347.03;;;8.32;86.02
40650;BME280;26342;42.826;23.992;2023-11-19T09:55:13;95335.78;;;8.81;84.50
40650;BME280;26342;42.826;23.992;2023-11-19T09:57:39;95339.69;;;8.95;78.86
40650;BME280;26342;42.826;23.992;2023-11-19T10:00:07;95340.19;;;9.14;73.25
40650;BME280;26342;42.826;23.992;2023-11-19T10:02:33;95334.28;;;8.90;74.65
40650;BME280;26342;42.826;23.992;2023-11-19T10:05:04;95336.06;;;8.84;71.75
40650;BME280;26342;42.826;23.992;2023-11-19T10:07:31;95338.88;;;8.73;72.35
40650;BME280;26342;42.826;23.992;2023-11-19T10:10:01;95335.00;;;8.63;73.49
40650;BME280;26342;42.826;23.992;2023-11-19T10:12:29;95326.41;;;8.56;77.27
40650;BME280;26342;42.826;23.992;2023-11-19T10:14:57;95325.94;;;8.43;77.17
40650;BME280;26342;42.826;23.992;2023-11-19T10:17:33;95331.34;;;8.31;77.40
40650;BME280;26342;42.826;23.992;2023-11-19T10:19:59;95331.41;;;8.19;78.88
40650;BME280;26342;42.826;23.992;2023-11-19T10:22:25;95324.38;;;8.13;82.63
40650;BME280;26342;42.826;23.992;2023-11-19T10:24:51;95336.25;;;8.22;83.67
40650;BME280;26342;42.826;23.992;2023-11-19T10:27:17;95330.69;;;8.24;79.79
40650;BME280;26342;42.826;23.992;2023-11-19T10:29:46;95319.50;;;8.38;81.51
40650;BME280;26342;42.826;23.992;2023-11-19T10:32:13;95327.53;;;8.44;78.71
40650;BME280;26342;42.826;23.992;2023-11-19T10:34:39;95326.09;;;8.36;77.33
40650;BME280;26342;42.826;23.992;2023-11-19T10:37:06;95313.28;;;8.33;79.65
40650;BME280;26342;42.826;23.992;2023-11-19T10:39:52;95306.66;;;8.52;81.26
40650;BME280;26342;42.826;23.992;2023-11-19T10:42:21;95306.94;;;8.73;80.14
40650;BME280;26342;42.826;23.992;2023-11-19T10:44:46;95292.72;;;8.62;71.64
40650;BME280;26342;42.826;23.992;2023-11-19T10:47:14;95305.69;;;8.58;77.62
40650;BME280;26342;42.826;23.992;2023-11-19T10:49:40;95307.78;;;8.56;75.08
40650;BME280;26342;42.826;23.992;2023-11-19T10:52:08;95306.72;;;8.57;73.14
40650;BME280;26342;42.826;23.992;2023-11-19T10:54:34;95292.72;;;8.45;74.02
40650;BME280;26342;42.826;23.992;2023-11-19T10:57:01;95305.63;;;8.53;73.57
40650;BME280;26342;42.826;23.992;2023-11-19T10:59:30;95310.06;;;8.48;76.28
40650;BME280;26342;42.826;23.992;2023-11-19T11:01:56;95300.06;;;8.55;77.09
40650;BME280;26342;42.826;23.992;2023-11-19T11:04:25;95309.22;;;8.64;74.43
40650;BME280;26342;42.826;23.992;2023-11-19T11:06:58;95301.13;;;8.76;78.05
40650;BME280;26342;42.826;23.992;2023-11-19T11:09:26;95303.84;;;8.81;77.16
40650;BME280;26342;42.826;23.992;2023-11-19T11:11:54;95297.47;;;8.82;68.53
40650;BME280;26342;42.826;23.992;2023-11-19T11:14:23;95290.53;;;8.81;71.29
40650;BME280;26342;42.826;23.992;2023-11-19T11:16:49;95284.50;;;8.85;74.39
40650;BME280;26342;42.826;23.992;2023-11-19T11:19:16;95278.38;;;8.85;71.89
40650;BME280;26342;42.826;23.992;2023-11-19T11:21:47;95281.31;;;8.88;72.44
40650;BME280;26342;42.826;23.992;2023-11-19T11:24:30;95283.44;;;8.86;73.16
40650;BME280;26342;42.826;23.992;2023-11-19T11:32:53;95275.75;;;8.68;77.11
40650;BME280;26342;42.826;23.992;2023-11-19T11:35:28;95282.44;;;8.71;76.76
40650;BME280;26342;42.826;23.992;2023-11-19T11:38:01;95289.00;;;8.63;73.58
40650;BME280;26342;42.826;23.992;2023-11-19T11:40:28;95285.63;;;8.51;76.58
40650;BME280;26342;42.826;23.992;2023-11-19T11:42:53;95266.88;;;8.41;79.95
40650;BME280;26342;42.826;23.992;2023-11-19T11:45:19;95282.41;;;8.49;77.22
40650;BME280;26342;42.826;23.992;2023-11-19T11:48:15;95281.63;;;8.48;83.86
40650;BME280;26342;42.826;23.992;2023-11-19T11:50:48;95287.91;;;8.42;75.48
40650;BME280;26342;42.826;23.992;2023-11-19T11:53:18;95276.97;;;8.38;76.82
40650;BME280;26342;42.826;23.992;2023-11-19T11:58:13;95275.00;;;8.34;77.56
40650;BME280;26342;42.826;23.992;2023-11-19T12:00:40;95275.00;;;8.34;78.52
40650;BME280;26342;42.826;23.992;2023-11-19T12:03:07;95280.44;;;8.39;79.21
40650;BME280;26342;42.826;23.992;2023-11-19T12:05:38;95279.94;;;8.42;80.97
40650;BME280;26342;42.826;23.992;2023-11-19T12:08:04;95271.16;;;8.42;78.57
40650;BME280;26342;42.826;23.992;2023-11-19T12:10:54;95269.84;;;8.44;73.38
40650;BME280;26342;42.826;23.992;2023-11-19T12:13:20;95255.69;;;8.38;78.32
40650;BME280;26342;42.826;23.992;2023-11-19T12:20:48;95259.38;;;8.21;79.85
40650;BME280;26342;42.826;23.992;2023-11-19T12:23:14;95259.22;;;8.27;80.44
40650;BME280;26342;42.826;23.992;2023-11-19T12:25:40;95250.31;;;8.17;80.64
40650;BME280;26342;42.826;23.992;2023-11-19T12:28:11;95240.06;;;8.25;81.78
40650;BME280;26342;42.826;23.992;2023-11-19T12:30:37;95235.03;;;8.29;80.32
40650;BME280;26342;42.826;23.992;2023-11-19T12:33:10;95218.66;;;8.15;81.64
40650;BME280;26342;42.826;23.992;2023-11-19T12:35:45;95241.28;;;8.18;80.97
40650;BME280;26342;42.826;23.992;2023-11-19T12:38:19;95237.97;;;8.10;81.19
40650;BME280;26342;42.826;23.992;2023-11-19T12:41:02;95225.34;;;8.18;79.73
40650;BME280;26342;42.826;23.992;2023-11-19T12:43:28;95213.97;;;8.05;81.69
40650;BME280;26342;42.826;23.992;2023-11-19T12:45:54;95225.03;;;8.14;80.46
40650;BME280;26342;42.826;23.992;2023-11-19T12:48:20;95216.81;;;8.16;78.87
40650;BME280;26342;42.826;23.992;2023-11-19T12:53:20;95211.41;;;8.10;80.12
40650;BME280;26342;42.826;23.992;2023-11-19T12:55:46;95223.09;;;8.09;79.78
40650;BME280;26342;42.826;23.992;2023-11-19T12:58:28;95206.59;;;8.07;75.54
40650;BME280;26342;42.826;23.992;2023-11-19T13:01:04;95201.38;;;7.96;79.19
40650;BME280;26342;42.826;23.992;2023-11-19T13:03:34;95208.06;;;7.98;80.82
40650;BME280;26342;42.826;23.992;2023-11-19T13:06:10;95215.44;;;7.96;76.86
40650;BME280;26342;42.826;23.992;2023-11-19T13:08:47;95208.88;;;7.99;83.26